sensor_id;sensor_type;location;lat;lon;timestamp;P1;durP1;ratioP1;P2;durP2;ratioP2
8371;SDS011;4223;48.724;8.982;2022-12-05T00:00:14;7.57;;;6.83;;
8371;SDS011;4223;48.724;8.982;2022-12-05T00:02:41;9.77;;;6.73;;
8371;SDS011;4223;48.724;8.982;2022-12-05T00:05:09;6.10;;;5.57;;
8371;SDS011;4223;48.724;8.982;2022-12-05T00:07:36;5.50;;;5.10;;
8371;SDS011;4223;48.724;8.982;2022-12-05T00:10:05;7.33;;;6.80;;
8371;SDS011;4223;48.724;8.982;2022-12-05T00:12:32;10.03;;;9.00;;
8371;SDS011;4223;48.724;8.982;2022-12-05T00:14:59;6.83;;;6.20;;
8371;SDS011;4223;48.724;8.982;2022-12-05T00:17:30;5.77;;;5.47;;
8371;SDS011;4223;48.724;8.982;2022-12-05T00:19:57;8.27;;;7.37;;
8371;SDS011;4223;48.724;8.982;2022-12-05T00:22:24;6.03;;;5.33;;
8371;SDS011;4223;48.724;8.982;2022-12-05T00:24:51;7.07;;;6.40;;
8371;SDS011;4223;48.724;8.982;2022-12-05T00:27:19;9.13;;;7.13;;
8371;SDS011;4223;48.724;8.982;2022-12-05T00:29:46;4.87;;;4.57;;
8371;SDS011;4223;48.724;8.982;2022-12-05T00:32:12;31.90;;;6.73;;
8371;SDS011;4223;48.724;8.982;2022-12-05T00:34:39;7.13;;;6.70;;
8371;SDS011;4223;48.724;8.982;2022-12-05T00:37:06;8.07;;;6.03;;
8371;SDS011;4223;48.724;8.982;2022-12-05T00:39:33;10.07;;;7.40;;
8371;SDS011;4223;48.724;8.982;2022-12-05T00:42:00;8.20;;;6.30;;
8371;SDS011;4223;48.724;8.982;2022-12-05T00:44:28;7.50;;;6.70;;
8371;SDS011;4223;48.724;8.982;2022-12-05T00:46:55;6.63;;;6.17;;
8371;SDS011;4223;48.724;8.982;2022-12-05T00:49:21;5.73;;;5.30;;
8371;SDS011;4223;48.724;8.982;2022-12-05T00:51:48;7.10;;;5.37;;
8371;SDS011;4223;48.724;8.982;2022-12-05T00:54:15;11.17;;;5.93;;
8371;SDS011;4223;48.724;8.982;2022-12-05T00:56:43;5.57;;;5.23;;
8371;SDS011;4223;48.724;8.982;2022-12-05T00:59:11;12.27;;;5.53;;
8371;SDS011;4223;48.724;8.982;2022-12-05T01:01:44;5.10;;;4.70;;
8371;SDS011;4223;48.724;8.982;2022-12-05T01:04:14;6.37;;;5.87;;
8371;SDS011;4223;48.724;8.982;2022-12-05T01:06:44;8.53;;;5.70;;
8371;SDS011;4223;48.724;8.982;2022-12-05T01:09:12;5.47;;;5.07;;
8371;SDS011;4223;48.724;8.982;2022-12-05T01:11:40;6.57;;;6.13;;
8371;SDS011;4223;48.724;8.982;2022-12-05T01:14:07;8.27;;;5.87;;
8371;SDS011;4223;48.724;8.982;2022-12-05T01:16:35;5.73;;;5.23;;
8371;SDS011;4223;48.724;8.982;2022-12-05T01:19:05;6.70;;;6.00;;
8371;SDS011;4223;48.724;8.982;2022-12-05T01:21:33;4.40;;;4.00;;
8371;SDS011;4223;48.724;8.982;2022-12-05T01:24:00;5.20;;;4.90;;
8371;SDS011;4223;48.724;8.982;2022-12-05T01:26:27;7.93;;;7.13;;
8371;SDS011;4223;48.724;8.982;2022-12-05T01:28:54;5.80;;;5.40;;
8371;SDS011;4223;48.724;8.982;2022-12-05T01:31:22;7.20;;;6.53;;
8371;SDS011;4223;48.724;8.982;2022-12-05T01:33:50;13.87;;;7.27;;
8371;SDS011;4223;48.724;8.982;2022-12-05T01:36:21;5.77;;;5.27;;
8371;SDS011;4223;48.724;8.982;2022-12-05T01:38:51;10.27;;;7.17;;
8371;SDS011;4223;48.724;8.982;2022-12-05T01:41:19;7.03;;;5.97;;
8371;SDS011;4223;48.724;8.982;2022-12-05T01:43:58;6.67;;;5.67;;
8371;SDS011;4223;48.724;8.982;2022-12-05T01:46:27;8.90;;;6.53;;
8371;SDS011;4223;48.724;8.982;2022-12-05T01:48:57;8.90;;;7.10;;
8371;SDS011;4223;48.724;8.982;2022-12-05T01:51:29;6.97;;;5.07;;
8371;SDS011;4223;48.724;8.982;2022-12-05T01:53:57;6.83;;;6.43;;
8371;SDS011;4223;48.724;8.982;2022-12-05T01:56:26;9.17;;;6.17;;
8371;SDS011;4223;48.724;8.982;2022-12-05T01:58:53;6.23;;;5.77;;
8371;SDS011;4223;48.724;8.982;2022-12-05T02:01:21;6.30;;;4.50;;
8371;SDS011;4223;48.724;8.982;2022-12-05T02:03:49;13.90;;;5.40;;
8371;SDS011;4223;48.724;8.982;2022-12-05T02:06:22;10.97;;;7.27;;
8371;SDS011;4223;48.724;8.982;2022-12-05T02:08:52;6.13;;;5.60;;
8371;SDS011;4223;48.724;8.982;2022-12-05T02:11:20;5.03;;;4.53;;
8371;SDS011;4223;48.724;8.982;2022-12-05T02:13:58;4.90;;;4.43;;
8371;SDS011;4223;48.724;8.982;2022-12-05T02:16:41;7.30;;;5.30;;
8371;SDS011;4223;48.724;8.982;2022-12-05T02:19:32;5.17;;;4.77;;
8371;SDS011;4223;48.724;8.982;2022-12-05T02:28:43;6.83;;;4.77;;
8371;SDS011;4223;48.724;8.982;2022-12-05T02:31:21;6.57;;;5.60;;
8371;SDS011;4223;48.724;8.982;2022-12-05T02:33:55;9.17;;;6.83;;
8371;SDS011;4223;48.724;8.982;2022-12-05T02:36:29;8.73;;;6.00;;
8371;SDS011;4223;48.724;8.982;2022-12-05T02:39:01;6.17;;;5.77;;
8371;SDS011;4223;48.724;8.982;2022-12-05T02:41:32;5.30;;;4.90;;
8371;SDS011;4223;48.724;8.982;2022-12-05T02:44:03;6.37;;;5.73;;
8371;SDS011;4223;48.724;8.982;2022-12-05T02:46:35;9.13;;;5.60;;
8371;SDS011;4223;48.724;8.982;2022-12-05T02:49:06;10.77;;;7.97;;
8371;SDS011;4223;48.724;8.982;2022-12-05T02:51:35;10.13;;;7.33;;
8371;SDS011;4223;48.724;8.982;2022-12-05T02:54:07;14.80;;;7.27;;
8371;SDS011;4223;48.724;8.982;2022-12-05T02:56:37;11.53;;;8.03;;
8371;SDS011;4223;48.724;8.982;2022-12-05T02:59:07;5.57;;;5.17;;
8371;SDS011;4223;48.724;8.982;2022-12-05T03:01:35;7.73;;;6.37;;
8371;SDS011;4223;48.724;8.982;2022-12-05T03:04:03;8.10;;;7.33;;
8371;SDS011;4223;48.724;8.982;2022-12-05T03:06:32;7.80;;;7.13;;
8371;SDS011;4223;48.724;8.982;2022-12-05T03:09:04;8.97;;;6.67;;
8371;SDS011;4223;48.724;8.982;2022-12-05T03:11:35;10.17;;;5.97;;
8371;SDS011;4223;48.724;8.982;2022-12-05T03:14:07;7.47;;;6.73;;
8371;SDS011;4223;48.724;8.982;2022-12-05T03:16:40;11.73;;;6.37;;
8371;SDS011;4223;48.724;8.982;2022-12-05T03:19:11;6.97;;;6.40;;
8371;SDS011;4223;48.724;8.982;2022-12-05T03:21:42;11.47;;;8.13;;
8371;SDS011;4223;48.724;8.982;2022-12-05T03:24:15;7.50;;;6.37;;
8371;SDS011;4223;48.724;8.982;2022-12-05T03:26:45;17.47;;;9.10;;
8371;SDS011;4223;48.724;8.982;2022-12-05T03:29:19;9.37;;;6.37;;
8371;SDS011;4223;48.724;8.982;2022-12-05T03:31:54;13.17;;;7.37;;
8371;SDS011;4223;48.724;8.982;2022-12-05T03:34:35;8.17;;;7.47;;
8371;SDS011;4223;48.724;8.982;2022-12-05T03:37:09;8.37;;;7.50;;
8371;SDS011;4223;48.724;8.982;2022-12-05T03:39:41;11.43;;;7.17;;
8371;SDS011;4223;48.724;8.982;2022-12-05T03:42:15;9.60;;;5.77;;
8371;SDS011;4223;48.724;8.982;2022-12-05T03:44:46;6.93;;;6.30;;
8371;SDS011;4223;48.724;8.982;2022-12-05T03:47:20;8.87;;;5.97;;
8371;SDS011;4223;48.724;8.982;2022-12-05T03:49:51;7.80;;;4.93;;
8371;SDS011;4223;48.724;8.982;2022-12-05T03:52:23;6.60;;;5.97;;
8371;SDS011;4223;48.724;8.982;2022-12-05T03:54:55;9.43;;;7.33;;
8371;SDS011;4223;48.724;8.982;2022-12-05T03:57:26;7.00;;;6.33;;
8371;SDS011;4223;48.724;8.982;2022-12-05T03:59:58;7.47;;;6.77;;
8371;SDS011;4223;48.724;8.982;2022-12-05T04:02:32;10.63;;;6.73;;
8371;SDS011;4223;48.724;8.982;2022-12-05T04:05:11;7.37;;;5.77;;
8371;SDS011;4223;48.724;8.982;2022-12-05T04:07:42;8.37;;;7.57;;
8371;SDS011;4223;48.724;8.982;2022-12-05T04:10:11;5.17;;;4.87;;
8371;SDS011;4223;48.724;8.982;2022-12-05T04:12:41;7.53;;;6.20;;
8371;SDS011;4223;48.724;8.982;2022-12-05T04:15:12;8.40;;;6.90;;
8371;SDS011;4223;48.724;8.982;2022-12-05T04:17:45;8.47;;;5.63;;
8371;SDS011;4223;48.724;8.982;2022-12-05T04:20:15;6.27;;;5.77;;
8371;SDS011;4223;48.724;8.982;2022-12-05T04:23:03;5.83;;;5.33;;
8371;SDS011;4223;48.724;8.982;2022-12-05T04:25:32;6.10;;;5.73;;
8371;SDS011;4223;48.724;8.982;2022-12-05T04:28:17;8.53;;;6.53;;
8371;SDS011;4223;48.724;8.982;2022-12-05T04:30:54;6.77;;;6.20;;
8371;SDS011;4223;48.724;8.982;2022-12-05T04:33:30;5.87;;;5.37;;
8371;SDS011;4223;48.724;8.982;2022-12-05T04:36:03;7.70;;;6.53;;
8371;SDS011;4223;48.724;8.982;2022-12-05T04:38:37;10.10;;;6.57;;
8371;SDS011;4223;48.724;8.982;2022-12-05T04:41:08;6.83;;;5.80;;
8371;SDS011;4223;48.724;8.982;2022-12-05T04:43:38;6.50;;;5.60;;
8371;SDS011;4223;48.724;8.982;2022-12-05T04:46:04;6.83;;;6.13;;
8371;SDS011;4223;48.724;8.982;2022-12-05T04:48:36;4.57;;;4.23;;
8371;SDS011;4223;48.724;8.982;2022-12-05T04:51:05;6.87;;;6.13;;
8371;SDS011;4223;48.724;8.982;2022-12-05T04:53:34;8.07;;;3.27;;
8371;SDS011;4223;48.724;8.982;2022-12-05T04:56:02;4.87;;;4.47;;
8371;SDS011;4223;48.724;8.982;2022-12-05T04:58:30;6.40;;;5.93;;
8371;SDS011;4223;48.724;8.982;2022-12-05T05:00:58;7.10;;;6.40;;
8371;SDS011;4223;48.724;8.982;2022-12-05T05:03:32;5.67;;;5.10;;
8371;SDS011;4223;48.724;8.982;2022-12-05T05:06:05;4.50;;;4.17;;
8371;SDS011;4223;48.724;8.982;2022-12-05T05:08:33;6.27;;;5.57;;
8371;SDS011;4223;48.724;8.982;2022-12-05T05:11:03;8.33;;;6.77;;
8371;SDS011;4223;48.724;8.982;2022-12-05T05:13:34;6.20;;;5.00;;
8371;SDS011;4223;48.724;8.982;2022-12-05T05:16:00;6.53;;;5.93;;
8371;SDS011;4223;48.724;8.982;2022-12-05T05:18:27;5.57;;;5.07;;
8371;SDS011;4223;48.724;8.982;2022-12-05T05:20:56;5.90;;;5.43;;
8371;SDS011;4223;48.724;8.982;2022-12-05T05:23:22;5.53;;;5.03;;
8371;SDS011;4223;48.724;8.982;2022-12-05T05:25:52;4.47;;;4.17;;
8371;SDS011;4223;48.724;8.982;2022-12-05T05:28:20;4.13;;;3.83;;
8371;SDS011;4223;48.724;8.982;2022-12-05T05:30:47;5.27;;;4.73;;
8371;SDS011;4223;48.724;8.982;2022-12-05T05:33:14;4.87;;;4.33;;
8371;SDS011;4223;48.724;8.982;2022-12-05T05:35:41;4.83;;;4.47;;
8371;SDS011;4223;48.724;8.982;2022-12-05T05:38:09;5.77;;;5.00;;
8371;SDS011;4223;48.724;8.982;2022-12-05T05:40:36;5.93;;;5.17;;
8371;SDS011;4223;48.724;8.982;2022-12-05T05:43:03;4.20;;;4.00;;
8371;SDS011;4223;48.724;8.982;2022-12-05T05:45:30;4.33;;;4.03;;
8371;SDS011;4223;48.724;8.982;2022-12-05T05:47:57;4.67;;;4.37;;
8371;SDS011;4223;48.724;8.982;2022-12-05T05:50:24;7.00;;;4.77;;
8371;SDS011;4223;48.724;8.982;2022-12-05T05:52:51;4.50;;;4.20;;
8371;SDS011;4223;48.724;8.982;2022-12-05T05:55:19;6.37;;;4.93;;
8371;SDS011;4223;48.724;8.982;2022-12-05T05:57:46;5.30;;;4.90;;
8371;SDS011;4223;48.724;8.982;2022-12-05T06:00:13;4.77;;;3.97;;
8371;SDS011;4223;48.724;8.982;2022-12-05T06:02:41;5.53;;;4.93;;
8371;SDS011;4223;48.724;8.982;2022-12-05T06:05:08;6.53;;;6.03;;
8371;SDS011;4223;48.724;8.982;2022-12-05T06:07:35;3.60;;;3.37;;
8371;SDS011;4223;48.724;8.982;2022-12-05T06:10:02;5.40;;;5.00;;
8371;SDS011;4223;48.724;8.982;2022-12-05T06:12:31;5.33;;;4.80;;
8371;SDS011;4223;48.724;8.982;2022-12-05T06:14:58;5.47;;;5.00;;
8371;SDS011;4223;48.724;8.982;2022-12-05T06:17:25;3.33;;;3.23;;
8371;SDS011;4223;48.724;8.982;2022-12-05T06:19:51;4.77;;;4.33;;
8371;SDS011;4223;48.724;8.982;2022-12-05T06:22:18;5.97;;;5.30;;
8371;SDS011;4223;48.724;8.982;2022-12-05T06:24:45;4.47;;;4.07;;
8371;SDS011;4223;48.724;8.982;2022-12-05T06:27:12;3.80;;;3.50;;
8371;SDS011;4223;48.724;8.982;2022-12-05T06:29:41;5.13;;;3.80;;
8371;SDS011;4223;48.724;8.982;2022-12-05T06:32:07;4.67;;;4.40;;
8371;SDS011;4223;48.724;8.982;2022-12-05T06:34:34;3.77;;;3.47;;
8371;SDS011;4223;48.724;8.982;2022-12-05T06:37:01;4.83;;;4.53;;
8371;SDS011;4223;48.724;8.982;2022-12-05T06:39:28;4.47;;;4.07;;
8371;SDS011;4223;48.724;8.982;2022-12-05T06:41:55;3.63;;;3.33;;
8371;SDS011;4223;48.724;8.982;2022-12-05T06:44:22;4.67;;;4.27;;
8371;SDS011;4223;48.724;8.982;2022-12-05T06:46:52;4.33;;;4.13;;
8371;SDS011;4223;48.724;8.982;2022-12-05T06:49:19;4.77;;;4.37;;
8371;SDS011;4223;48.724;8.982;2022-12-05T06:51:46;6.60;;;4.43;;
8371;SDS011;4223;48.724;8.982;2022-12-05T06:54:13;5.70;;;5.23;;
8371;SDS011;4223;48.724;8.982;2022-12-05T06:56:40;5.17;;;4.67;;
8371;SDS011;4223;48.724;8.982;2022-12-05T06:59:07;4.37;;;4.10;;
8371;SDS011;4223;48.724;8.982;2022-12-05T07:01:34;3.90;;;3.70;;
8371;SDS011;4223;48.724;8.982;2022-12-05T07:04:04;4.17;;;3.87;;
8371;SDS011;4223;48.724;8.982;2022-12-05T07:06:34;3.57;;;3.37;;
8371;SDS011;4223;48.724;8.982;2022-12-05T07:09:02;4.23;;;3.83;;
8371;SDS011;4223;48.724;8.982;2022-12-05T07:11:30;4.00;;;3.67;;
8371;SDS011;4223;48.724;8.982;2022-12-05T07:13:56;4.73;;;4.37;;
8371;SDS011;4223;48.724;8.982;2022-12-05T07:16:24;4.97;;;4.07;;
8371;SDS011;4223;48.724;8.982;2022-12-05T07:18:51;6.17;;;4.30;;
8371;SDS011;4223;48.724;8.982;2022-12-05T07:21:19;3.80;;;3.53;;
8371;SDS011;4223;48.724;8.982;2022-12-05T07:23:46;3.63;;;3.47;;
8371;SDS011;4223;48.724;8.982;2022-12-05T07:26:15;4.10;;;3.80;;
8371;SDS011;4223;48.724;8.982;2022-12-05T07:28:44;5.30;;;4.83;;
8371;SDS011;4223;48.724;8.982;2022-12-05T07:31:12;5.07;;;4.67;;
8371;SDS011;4223;48.724;8.982;2022-12-05T07:33:40;4.93;;;3.77;;
8371;SDS011;4223;48.724;8.982;2022-12-05T07:36:08;3.33;;;3.03;;
8371;SDS011;4223;48.724;8.982;2022-12-05T07:38:37;4.90;;;4.50;;
8371;SDS011;4223;48.724;8.982;2022-12-05T07:41:05;4.30;;;4.00;;
8371;SDS011;4223;48.724;8.982;2022-12-05T07:43:32;3.93;;;3.63;;
8371;SDS011;4223;48.724;8.982;2022-12-05T07:46:00;4.00;;;3.60;;
8371;SDS011;4223;48.724;8.982;2022-12-05T07:48:27;5.43;;;4.50;;
8371;SDS011;4223;48.724;8.982;2022-12-05T07:50:57;4.17;;;3.87;;
8371;SDS011;4223;48.724;8.982;2022-12-05T07:53:26;4.20;;;3.20;;
8371;SDS011;4223;48.724;8.982;2022-12-05T07:55:54;3.17;;;3.00;;
8371;SDS011;4223;48.724;8.982;2022-12-05T07:58:23;4.00;;;3.70;;
8371;SDS011;4223;48.724;8.982;2022-12-05T08:00:50;4.03;;;3.80;;
8371;SDS011;4223;48.724;8.982;2022-12-05T08:03:17;4.27;;;3.97;;
8371;SDS011;4223;48.724;8.982;2022-12-05T08:05:43;5.00;;;4.57;;
8371;SDS011;4223;48.724;8.982;2022-12-05T08:08:10;4.93;;;3.87;;
8371;SDS011;4223;48.724;8.982;2022-12-05T08:10:37;4.80;;;4.40;;
8371;SDS011;4223;48.724;8.982;2022-12-05T08:13:05;3.00;;;2.80;;
8371;SDS011;4223;48.724;8.982;2022-12-05T08:15:33;2.80;;;2.70;;
8371;SDS011;4223;48.724;8.982;2022-12-05T08:18:00;3.70;;;3.50;;
8371;SDS011;4223;48.724;8.982;2022-12-05T08:20:27;3.20;;;3.00;;
8371;SDS011;4223;48.724;8.982;2022-12-05T08:22:54;2.87;;;2.77;;
8371;SDS011;4223;48.724;8.982;2022-12-05T08:25:21;4.13;;;3.83;;
8371;SDS011;4223;48.724;8.982;2022-12-05T08:27:49;4.73;;;3.70;;
8371;SDS011;4223;48.724;8.982;2022-12-05T08:30:18;3.93;;;3.43;;
8371;SDS011;4223;48.724;8.982;2022-12-05T08:32:45;3.70;;;3.40;;
8371;SDS011;4223;48.724;8.982;2022-12-05T08:35:11;3.43;;;3.20;;
8371;SDS011;4223;48.724;8.982;2022-12-05T08:37:38;4.47;;;4.17;;
8371;SDS011;4223;48.724;8.982;2022-12-05T08:40:06;3.30;;;3.20;;
8371;SDS011;4223;48.724;8.982;2022-12-05T08:42:33;11.20;;;3.90;;
8371;SDS011;4223;48.724;8.982;2022-12-05T08:45:00;3.67;;;3.37;;
8371;SDS011;4223;48.724;8.982;2022-12-05T08:47:29;3.83;;;3.63;;
8371;SDS011;4223;48.724;8.982;2022-12-05T08:49:55;3.90;;;3.70;;
8371;SDS011;4223;48.724;8.982;2022-12-05T08:52:22;2.87;;;2.77;;
8371;SDS011;4223;48.724;8.982;2022-12-05T08:54:49;3.20;;;3.00;;
8371;SDS011;4223;48.724;8.982;2022-12-05T08:57:16;2.90;;;2.80;;
8371;SDS011;4223;48.724;8.982;2022-12-05T08:59:43;4.00;;;3.73;;
8371;SDS011;4223;48.724;8.982;2022-12-05T09:02:10;3.37;;;3.17;;
8371;SDS011;4223;48.724;8.982;2022-12-05T09:04:38;4.17;;;3.83;;
8371;SDS011;4223;48.724;8.982;2022-12-05T09:07:05;3.30;;;3.20;;
8371;SDS011;4223;48.724;8.982;2022-12-05T09:09:33;4.10;;;3.87;;
8371;SDS011;4223;48.724;8.982;2022-12-05T09:12:00;2.93;;;2.83;;
8371;SDS011;4223;48.724;8.982;2022-12-05T09:14:27;3.53;;;3.33;;
8371;SDS011;4223;48.724;8.982;2022-12-05T09:16:57;3.40;;;3.20;;
8371;SDS011;4223;48.724;8.982;2022-12-05T09:19:24;8.47;;;4.53;;
8371;SDS011;4223;48.724;8.982;2022-12-05T09:21:53;3.90;;;3.60;;
8371;SDS011;4223;48.724;8.982;2022-12-05T09:24:20;2.13;;;2.03;;
8371;SDS011;4223;48.724;8.982;2022-12-05T09:26:47;4.00;;;3.80;;
8371;SDS011;4223;48.724;8.982;2022-12-05T09:29:13;2.83;;;2.70;;
8371;SDS011;4223;48.724;8.982;2022-12-05T09:31:40;4.77;;;4.47;;
8371;SDS011;4223;48.724;8.982;2022-12-05T09:34:08;3.23;;;3.13;;
8371;SDS011;4223;48.724;8.982;2022-12-05T09:36:35;3.30;;;3.10;;
8371;SDS011;4223;48.724;8.982;2022-12-05T09:39:04;6.90;;;5.17;;
8371;SDS011;4223;48.724;8.982;2022-12-05T09:41:48;2.57;;;2.47;;
8371;SDS011;4223;48.724;8.982;2022-12-05T09:44:43;3.60;;;3.50;;
8371;SDS011;4223;48.724;8.982;2022-12-05T09:47:23;2.57;;;2.47;;
8371;SDS011;4223;48.724;8.982;2022-12-05T09:50:12;3.47;;;3.37;;
8371;SDS011;4223;48.724;8.982;2022-12-05T09:52:42;2.90;;;2.70;;
8371;SDS011;4223;48.724;8.982;2022-12-05T09:55:32;2.90;;;2.70;;
8371;SDS011;4223;48.724;8.982;2022-12-05T09:58:03;3.57;;;3.37;;
8371;SDS011;4223;48.724;8.982;2022-12-05T10:00:38;3.37;;;3.27;;
8371;SDS011;4223;48.724;8.982;2022-12-05T10:03:08;3.47;;;3.27;;
8371;SDS011;4223;48.724;8.982;2022-12-05T10:05:50;3.97;;;3.77;;
8371;SDS011;4223;48.724;8.982;2022-12-05T10:08:24;3.57;;;3.43;;
8371;SDS011;4223;48.724;8.982;2022-12-05T10:10:58;4.67;;;3.87;;
8371;SDS011;4223;48.724;8.982;2022-12-05T10:13:30;2.73;;;2.53;;
8371;SDS011;4223;48.724;8.982;2022-12-05T10:16:08;3.80;;;3.63;;
8371;SDS011;4223;48.724;8.982;2022-12-05T10:18:39;3.80;;;3.57;;
8371;SDS011;4223;48.724;8.982;2022-12-05T10:21:12;3.77;;;3.47;;
8371;SDS011;4223;48.724;8.982;2022-12-05T10:23:45;6.50;;;4.03;;
8371;SDS011;4223;48.724;8.982;2022-12-05T10:26:21;3.83;;;3.50;;
8371;SDS011;4223;48.724;8.982;2022-12-05T10:28:51;3.10;;;2.90;;
8371;SDS011;4223;48.724;8.982;2022-12-05T10:31:23;2.93;;;2.73;;
8371;SDS011;4223;48.724;8.982;2022-12-05T10:33:54;3.77;;;3.60;;
8371;SDS011;4223;48.724;8.982;2022-12-05T10:36:26;3.70;;;3.50;;
8371;SDS011;4223;48.724;8.982;2022-12-05T10:38:53;9.13;;;3.10;;
8371;SDS011;4223;48.724;8.982;2022-12-05T10:41:22;2.60;;;2.50;;
8371;SDS011;4223;48.724;8.982;2022-12-05T10:43:49;3.00;;;2.80;;
8371;SDS011;4223;48.724;8.982;2022-12-05T10:46:16;2.80;;;2.63;;
8371;SDS011;4223;48.724;8.982;2022-12-05T10:48:43;4.40;;;3.97;;
8371;SDS011;4223;48.724;8.982;2022-12-05T10:51:12;2.30;;;2.20;;
8371;SDS011;4223;48.724;8.982;2022-12-05T10:53:41;3.40;;;2.57;;
8371;SDS011;4223;48.724;8.982;2022-12-05T10:59:05;3.53;;;3.33;;
8371;SDS011;4223;48.724;8.982;2022-12-05T11:01:33;2.37;;;2.27;;
8371;SDS011;4223;48.724;8.982;2022-12-05T11:04:03;2.50;;;2.40;;
8371;SDS011;4223;48.724;8.982;2022-12-05T11:06:35;2.30;;;2.03;;
8371;SDS011;4223;48.724;8.982;2022-12-05T11:09:05;2.00;;;2.00;;
8371;SDS011;4223;48.724;8.982;2022-12-05T11:11:43;3.97;;;3.67;;
8371;SDS011;4223;48.724;8.982;2022-12-05T11:14:25;1.47;;;1.37;;
8371;SDS011;4223;48.724;8.982;2022-12-05T11:16:54;2.63;;;2.43;;
8371;SDS011;4223;48.724;8.982;2022-12-05T11:19:24;4.27;;;3.97;;
8371;SDS011;4223;48.724;8.982;2022-12-05T11:21:54;2.87;;;2.70;;
8371;SDS011;4223;48.724;8.982;2022-12-05T11:24:22;1.10;;;1.10;;
8371;SDS011;4223;48.724;8.982;2022-12-05T11:26:55;2.07;;;2.07;;
8371;SDS011;4223;48.724;8.982;2022-12-05T11:29:26;2.37;;;2.27;;
8371;SDS011;4223;48.724;8.982;2022-12-05T11:31:59;1.73;;;1.63;;
8371;SDS011;4223;48.724;8.982;2022-12-05T11:34:28;1.10;;;1.10;;
8371;SDS011;4223;48.724;8.982;2022-12-05T11:37:01;2.10;;;1.83;;
8371;SDS011;4223;48.724;8.982;2022-12-05T11:39:35;1.80;;;1.80;;
8371;SDS011;4223;48.724;8.982;2022-12-05T11:42:07;1.13;;;1.13;;
8371;SDS011;4223;48.724;8.982;2022-12-05T11:44:55;1.00;;;1.00;;
8371;SDS011;4223;48.724;8.982;2022-12-05T11:47:39;1.40;;;1.40;;
8371;SDS011;4223;48.724;8.982;2022-12-05T11:50:27;2.10;;;2.00;;
8371;SDS011;4223;48.724;8.982;2022-12-05T11:53:09;1.30;;;1.30;;
8371;SDS011;4223;48.724;8.982;2022-12-05T11:55:53;2.37;;;2.23;;
8371;SDS011;4223;48.724;8.982;2022-12-05T11:58:36;1.53;;;1.53;;
8371;SDS011;4223;48.724;8.982;2022-12-05T12:01:18;1.10;;;1.10;;
8371;SDS011;4223;48.724;8.982;2022-12-05T12:03:59;1.43;;;1.43;;
8371;SDS011;4223;48.724;8.982;2022-12-05T12:06:40;1.50;;;1.50;;
8371;SDS011;4223;48.724;8.982;2022-12-05T12:09:18;3.13;;;2.93;;
8371;SDS011;4223;48.724;8.982;2022-12-05T12:11:56;3.57;;;3.37;;
8371;SDS011;4223;48.724;8.982;2022-12-05T12:14:32;1.50;;;1.50;;
8371;SDS011;4223;48.724;8.982;2022-12-05T12:17:08;1.57;;;1.57;;
8371;SDS011;4223;48.724;8.982;2022-12-05T12:19:48;1.10;;;1.10;;
8371;SDS011;4223;48.724;8.982;2022-12-05T12:22:29;1.40;;;1.40;;
8371;SDS011;4223;48.724;8.982;2022-12-05T12:25:19;1.33;;;1.30;;
8371;SDS011;4223;48.724;8.982;2022-12-05T12:27:55;1.90;;;1.37;;
8371;SDS011;4223;48.724;8.982;2022-12-05T12:30:34;0.73;;;0.73;;
8371;SDS011;4223;48.724;8.982;2022-12-05T12:33:13;1.37;;;1.37;;
8371;SDS011;4223;48.724;8.982;2022-12-05T12:35:52;1.57;;;1.47;;
8371;SDS011;4223;48.724;8.982;2022-12-05T12:38:34;1.47;;;1.47;;
8371;SDS011;4223;48.724;8.982;2022-12-05T12:41:15;1.10;;;1.10;;
8371;SDS011;4223;48.724;8.982;2022-12-05T12:43:56;1.63;;;1.53;;
8371;SDS011;4223;48.724;8.982;2022-12-05T12:46:36;0.73;;;0.73;;
8371;SDS011;4223;48.724;8.982;2022-12-05T12:49:18;1.53;;;1.53;;
8371;SDS011;4223;48.724;8.982;2022-12-05T12:51:59;1.33;;;1.13;;
8371;SDS011;4223;48.724;8.982;2022-12-05T12:54:40;0.80;;;0.80;;
8371;SDS011;4223;48.724;8.982;2022-12-05T12:57:28;0.87;;;0.83;;
8371;SDS011;4223;48.724;8.982;2022-12-05T13:00:04;2.37;;;2.27;;
8371;SDS011;4223;48.724;8.982;2022-12-05T13:02:40;3.00;;;2.80;;
8371;SDS011;4223;48.724;8.982;2022-12-05T13:05:15;1.23;;;1.23;;
8371;SDS011;4223;48.724;8.982;2022-12-05T13:07:48;1.47;;;1.47;;
8371;SDS011;4223;48.724;8.982;2022-12-05T13:10:20;2.40;;;2.30;;
8371;SDS011;4223;48.724;8.982;2022-12-05T13:12:52;1.50;;;1.40;;
8371;SDS011;4223;48.724;8.982;2022-12-05T13:15:22;1.50;;;1.50;;
8371;SDS011;4223;48.724;8.982;2022-12-05T13:17:54;1.17;;;1.17;;
8371;SDS011;4223;48.724;8.982;2022-12-05T13:20:21;1.70;;;1.60;;
8371;SDS011;4223;48.724;8.982;2022-12-05T13:22:55;1.37;;;1.37;;
8371;SDS011;4223;48.724;8.982;2022-12-05T13:25:23;1.00;;;1.00;;
8371;SDS011;4223;48.724;8.982;2022-12-05T13:27:54;1.10;;;1.10;;
8371;SDS011;4223;48.724;8.982;2022-12-05T13:30:24;1.50;;;1.50;;
8371;SDS011;4223;48.724;8.982;2022-12-05T13:32:55;1.50;;;1.50;;
8371;SDS011;4223;48.724;8.982;2022-12-05T13:35:27;2.40;;;2.20;;
8371;SDS011;4223;48.724;8.982;2022-12-05T13:38:26;1.53;;;1.53;;
8371;SDS011;4223;48.724;8.982;2022-12-05T13:41:12;1.53;;;1.53;;
8371;SDS011;4223;48.724;8.982;2022-12-05T13:43:57;1.40;;;1.40;;
8371;SDS011;4223;48.724;8.982;2022-12-05T13:46:26;1.03;;;1.03;;
8371;SDS011;4223;48.724;8.982;2022-12-05T13:49:00;2.20;;;1.90;;
8371;SDS011;4223;48.724;8.982;2022-12-05T13:51:31;1.00;;;1.00;;
8371;SDS011;4223;48.724;8.982;2022-12-05T13:54:02;5.33;;;2.70;;
8371;SDS011;4223;48.724;8.982;2022-12-05T13:56:46;1.13;;;1.07;;
8371;SDS011;4223;48.724;8.982;2022-12-05T14:11:10;1.50;;;1.40;;
8371;SDS011;4223;48.724;8.982;2022-12-05T14:13:38;0.80;;;0.80;;
8371;SDS011;4223;48.724;8.982;2022-12-05T14:25:27;1.30;;;1.30;;
8371;SDS011;4223;48.724;8.982;2022-12-05T14:28:03;1.30;;;1.30;;
8371;SDS011;4223;48.724;8.982;2022-12-05T14:30:42;0.90;;;0.90;;
8371;SDS011;4223;48.724;8.982;2022-12-05T14:33:12;1.13;;;1.13;;
8371;SDS011;4223;48.724;8.982;2022-12-05T14:35:43;0.70;;;0.70;;
8371;SDS011;4223;48.724;8.982;2022-12-05T14:38:19;1.27;;;1.27;;
8371;SDS011;4223;48.724;8.982;2022-12-05T14:40:48;1.67;;;1.57;;
8371;SDS011;4223;48.724;8.982;2022-12-05T14:43:16;2.10;;;1.90;;
8371;SDS011;4223;48.724;8.982;2022-12-05T14:45:54;1.33;;;1.33;;
8371;SDS011;4223;48.724;8.982;2022-12-05T14:48:25;1.10;;;1.10;;
8371;SDS011;4223;48.724;8.982;2022-12-05T14:50:56;1.23;;;1.23;;
8371;SDS011;4223;48.724;8.982;2022-12-05T14:53:35;0.50;;;0.50;;
8371;SDS011;4223;48.724;8.982;2022-12-05T14:56:05;1.53;;;1.53;;
8371;SDS011;4223;48.724;8.982;2022-12-05T14:58:41;2.30;;;0.87;;
8371;SDS011;4223;48.724;8.982;2022-12-05T15:01:13;1.67;;;1.67;;
8371;SDS011;4223;48.724;8.982;2022-12-05T15:03:55;0.80;;;0.80;;
8371;SDS011;4223;48.724;8.982;2022-12-05T15:06:29;1.30;;;1.30;;
8371;SDS011;4223;48.724;8.982;2022-12-05T15:09:03;2.47;;;1.60;;
8371;SDS011;4223;48.724;8.982;2022-12-05T15:11:32;1.17;;;1.13;;
8371;SDS011;4223;48.724;8.982;2022-12-05T15:14:04;0.97;;;0.97;;
8371;SDS011;4223;48.724;8.982;2022-12-05T15:16:42;1.33;;;1.33;;
8371;SDS011;4223;48.724;8.982;2022-12-05T15:19:13;2.20;;;2.00;;
8371;SDS011;4223;48.724;8.982;2022-12-05T15:21:44;0.97;;;0.97;;
8371;SDS011;4223;48.724;8.982;2022-12-05T15:24:15;8.00;;;7.27;;
8371;SDS011;4223;48.724;8.982;2022-12-05T15:26:44;3.83;;;3.53;;
8371;SDS011;4223;48.724;8.982;2022-12-05T15:29:14;3.33;;;3.03;;
8371;SDS011;4223;48.724;8.982;2022-12-05T15:31:49;5.77;;;5.27;;
8371;SDS011;4223;48.724;8.982;2022-12-05T15:34:18;1.50;;;1.50;;
8371;SDS011;4223;48.724;8.982;2022-12-05T15:36:49;1.50;;;1.50;;
8371;SDS011;4223;48.724;8.982;2022-12-05T15:39:22;1.60;;;1.60;;
8371;SDS011;4223;48.724;8.982;2022-12-05T15:41:52;1.30;;;1.30;;
8371;SDS011;4223;48.724;8.982;2022-12-05T15:44:20;0.90;;;0.90;;
8371;SDS011;4223;48.724;8.982;2022-12-05T15:46:52;2.10;;;1.97;;
8371;SDS011;4223;48.724;8.982;2022-12-05T15:49:21;1.87;;;1.87;;
8371;SDS011;4223;48.724;8.982;2022-12-05T15:51:50;1.57;;;1.47;;
8371;SDS011;4223;48.724;8.982;2022-12-05T15:54:22;1.47;;;1.47;;
8371;SDS011;4223;48.724;8.982;2022-12-05T15:56:55;1.57;;;1.47;;
8371;SDS011;4223;48.724;8.982;2022-12-05T15:59:30;0.93;;;0.93;;
8371;SDS011;4223;48.724;8.982;2022-12-05T16:02:01;1.80;;;1.80;;
8371;SDS011;4223;48.724;8.982;2022-12-05T16:04:33;2.80;;;2.70;;
8371;SDS011;4223;48.724;8.982;2022-12-05T16:07:07;1.53;;;1.43;;
8371;SDS011;4223;48.724;8.982;2022-12-05T16:09:38;1.60;;;1.37;;